createdAt,value
2022-08-17T00:00:55.080Z,97.08
2022-08-17T00:01:55.090Z,96.53
2022-08-17T00:02:55.058Z,96.13
2022-08-17T00:03:55.047Z,96.13
2022-08-17T00:04:55.276Z,96.08
2022-08-17T00:05:55.023Z,96.18
2022-08-17T00:06:55.014Z,96.33
2022-08-17T00:07:55.005Z,96.18
2022-08-17T00:08:55.000Z,96.18
2022-08-17T00:09:54.984Z,96.28
2022-08-17T00:10:54.972Z,96.08
2022-08-17T00:12:42.807Z,95.93
2022-08-17T00:12:56.389Z,95.58
2022-08-17T00:13:56.018Z,95.58
2022-08-17T00:14:54.929Z,94.87
2022-08-17T00:15:54.917Z,94.42
2022-08-17T00:16:57.094Z,94.42
2022-08-17T00:17:54.897Z,94.42
2022-08-17T00:19:07.823Z,94.47
2022-08-17T00:19:55.899Z,94.72
2022-08-17T00:20:54.865Z,94.92
2022-08-17T00:22:29.772Z,95.33
2022-08-17T00:22:55.863Z,95.73
2022-08-17T00:23:54.833Z,96.18
2022-08-17T00:24:54.826Z,96.53
2022-08-17T00:25:54.809Z,97.38
2022-08-17T00:26:54.801Z,96.98
2022-08-17T00:27:54.790Z,97.18
2022-08-17T00:28:54.778Z,96.88
2022-08-17T00:29:54.769Z,97.08
2022-08-17T00:30:54.758Z,97.38
2022-08-17T00:31:54.747Z,97.38
2022-08-17T00:33:12.680Z,97.34
2022-08-17T00:33:55.748Z,97.49
2022-08-17T00:34:54.723Z,97.18
2022-08-17T00:35:54.725Z,97.33
2022-08-17T00:36:54.698Z,97.44
2022-08-17T00:37:54.690Z,97.54
2022-08-17T00:38:54.676Z,97.58
2022-08-17T00:39:54.773Z,97.44
2022-08-17T00:40:55.815Z,97.54
2022-08-17T00:41:54.658Z,97.79
2022-08-17T00:42:54.638Z,97.64
2022-08-17T00:43:54.625Z,97.89
2022-08-17T00:44:54.610Z,97.24
2022-08-17T00:45:54.618Z,97.14
2022-08-17T00:46:54.591Z,96.78
2022-08-17T00:47:54.582Z,97.24
2022-08-17T00:48:54.568Z,97.34
2022-08-17T00:49:54.556Z,97.79
2022-08-17T00:50:54.549Z,97.54
2022-08-17T00:51:54.560Z,97.54
2022-08-17T00:52:54.524Z,97.34
2022-08-17T00:53:54.517Z,97.38
2022-08-17T00:54:54.505Z,96.94
2022-08-17T00:55:54.493Z,96.63
2022-08-17T00:56:54.492Z,96.44
2022-08-17T00:57:55.535Z,96.38
2022-08-17T00:58:54.462Z,95.73
2022-08-17T01:00:02.195Z,95.23
2022-08-17T01:00:55.555Z,95.43
2022-08-17T01:01:54.433Z,95.53
2022-08-17T01:02:54.596Z,95.73
2022-08-17T01:03:58.036Z,95.89
2022-08-17T01:04:54.403Z,95.98
2022-08-17T01:05:54.390Z,96.49
2022-08-17T01:06:54.383Z,96.89
2022-08-17T01:07:54.404Z,96.94
2022-08-17T01:08:57.596Z,97.14
2022-08-17T01:09:54.349Z,97.14
2022-08-17T01:10:58.690Z,97.19
2022-08-17T01:11:55.404Z,97.19
2022-08-17T01:12:54.322Z,97.03
2022-08-17T01:13:54.307Z,96.99
2022-08-17T01:14:54.299Z,96.63
2022-08-17T01:15:54.287Z,96.53
2022-08-17T01:16:54.282Z,96.44
2022-08-17T01:17:54.269Z,96.49
2022-08-17T01:18:54.260Z,96.69
2022-08-17T01:19:54.247Z,96.74
2022-08-17T01:20:54.237Z,96.44
2022-08-17T01:21:54.222Z,96.53
2022-08-17T01:22:54.220Z,96.33
2022-08-17T01:23:54.202Z,96.03
2022-08-17T01:24:54.197Z,95.83
2022-08-17T01:25:54.186Z,95.58
2022-08-17T01:26:54.171Z,95.12
2022-08-17T01:27:54.164Z,94.92
2022-08-17T01:28:55.937Z,94.62
2022-08-17T01:29:54.143Z,94.22
2022-08-17T01:30:58.420Z,94.48
2022-08-17T01:31:54.121Z,95.18
2022-08-17T01:32:54.108Z,95.78
2022-08-17T01:33:54.097Z,95.83
2022-08-17T01:34:54.091Z,95.83
2022-08-17T01:35:54.086Z,95.53
2022-08-17T01:36:54.067Z,95.83
2022-08-17T01:37:54.060Z,95.93
2022-08-17T01:38:54.053Z,96.28
2022-08-17T01:39:54.141Z,96.44
2022-08-17T01:40:57.572Z,96.53
2022-08-17T01:41:54.017Z,96.68
2022-08-17T01:42:54.004Z,96.88
2022-08-17T01:43:53.999Z,97.29
2022-08-17T01:44:53.988Z,97.49
2022-08-17T01:46:02.467Z,97.69
2022-08-17T01:46:54.988Z,97.29
2022-08-17T01:47:53.956Z,97.18
2022-08-17T01:48:53.946Z,96.68
2022-08-17T01:49:53.934Z,97.13
2022-08-17T01:50:53.925Z,97.18
2022-08-17T01:51:53.913Z,97.08
2022-08-17T01:52:53.906Z,97.49
2022-08-17T01:53:53.895Z,97.38
2022-08-17T01:54:53.880Z,97.49
2022-08-17T01:55:53.873Z,97.38
2022-08-17T01:56:53.859Z,97.18
2022-08-17T01:57:53.850Z,96.98
2022-08-17T01:58:53.838Z,96.88
2022-08-17T01:59:53.833Z,96.98
2022-08-17T02:01:01.082Z,96.68
2022-08-17T02:01:54.924Z,96.42
2022-08-17T02:02:53.798Z,96.38
2022-08-17T02:04:01.249Z,96.18
2022-08-17T02:04:54.798Z,95.67
2022-08-17T02:05:53.769Z,95.07
2022-08-17T02:06:54.667Z,94.47
2022-08-17T02:08:00.402Z,94.72
2022-08-17T02:09:02.257Z,94.42
2022-08-17T02:09:54.742Z,94.02
2022-08-17T02:10:53.712Z,94.22
2022-08-17T02:11:54.117Z,94.32
2022-08-17T02:12:53.929Z,95.12
2022-08-17T02:13:57.891Z,95.43
2022-08-17T02:14:54.691Z,95.63
2022-08-17T02:15:53.659Z,96.03
2022-08-17T02:16:53.649Z,96.33
2022-08-17T02:17:54.861Z,96.03
2022-08-17T02:18:53.629Z,96.33
2022-08-17T02:19:53.616Z,96.63
2022-08-17T02:20:53.611Z,96.44
2022-08-17T02:21:53.598Z,96.58
2022-08-17T02:22:53.587Z,96.58
2022-08-17T02:23:53.577Z,96.88
2022-08-17T02:24:58.461Z,96.38
2022-08-17T02:25:53.558Z,96.33
2022-08-17T02:26:53.544Z,96.53
2022-08-17T02:27:53.536Z,96.88
2022-08-17T02:28:53.523Z,96.88
2022-08-17T02:29:53.514Z,97.18
2022-08-17T02:31:01.640Z,97.23
2022-08-17T02:31:54.514Z,97.23
2022-08-17T02:32:53.487Z,97.33
2022-08-17T02:33:56.673Z,97.43
2022-08-17T02:34:53.461Z,97.68
2022-08-17T02:35:53.453Z,97.58
2022-08-17T02:36:53.446Z,97.68
2022-08-17T02:37:55.730Z,97.58
2022-08-17T02:38:53.424Z,97.08
2022-08-17T02:39:53.456Z,97.08
2022-08-17T02:40:53.402Z,97.18
2022-08-17T02:41:53.390Z,97.08
2022-08-17T02:42:53.379Z,96.97
2022-08-17T02:43:53.367Z,96.82
2022-08-17T02:44:53.357Z,96.57
2022-08-17T02:45:53.347Z,96.77
2022-08-17T02:46:53.340Z,96.77
2022-08-17T02:47:53.326Z,96.67
2022-08-17T03:40:57.603Z,86.92
2022-08-17T03:41:53.784Z,86.02
2022-08-17T03:42:52.751Z,86.42
2022-08-17T03:43:52.740Z,86.42
2022-08-17T03:46:52.708Z,90.19
2022-08-17T03:53:52.638Z,92.90
2022-08-17T03:54:52.626Z,93.85
2022-08-17T03:55:52.621Z,94.36
2022-08-17T03:56:52.607Z,94.80
2022-08-17T03:57:52.596Z,95.11
2022-08-17T03:58:52.586Z,96.01
2022-08-17T03:59:52.577Z,96.72
2022-08-17T04:00:52.568Z,97.12
2022-08-17T04:01:52.605Z,97.52
2022-08-17T04:02:52.584Z,97.63
2022-08-17T04:03:52.532Z,98.12
2022-08-17T04:04:52.676Z,99.84
2022-08-17T04:05:52.512Z,99.99
2022-08-17T04:06:52.502Z,99.99
2022-08-17T04:07:52.499Z,99.99
2022-08-17T04:08:52.480Z,99.99
2022-08-17T04:09:52.469Z,99.99
2022-08-17T04:10:52.457Z,99.99
2022-08-17T04:11:52.447Z,99.99
2022-08-17T04:12:52.678Z,99.99
2022-08-17T04:13:52.425Z,99.99
2022-08-17T04:14:54.600Z,99.99
2022-08-17T04:15:52.403Z,99.99
2022-08-17T04:16:52.399Z,99.99
2022-08-17T04:17:52.386Z,99.99
2022-08-17T04:18:52.379Z,99.99
2022-08-17T04:19:52.365Z,99.99
2022-08-17T04:20:52.352Z,99.99
2022-08-17T04:21:52.341Z,99.99
2022-08-17T04:22:52.330Z,99.99
2022-08-17T04:23:52.325Z,99.99
2022-08-17T04:24:52.312Z,99.99
2022-08-17T04:25:52.359Z,99.99
2022-08-17T04:26:54.595Z,99.99
2022-08-17T04:27:52.286Z,99.99
2022-08-17T04:28:52.271Z,99.99
2022-08-17T04:29:54.593Z,99.99
2022-08-17T04:30:52.256Z,99.99
2022-08-17T04:31:52.241Z,99.99
2022-08-17T04:33:03.551Z,99.99
2022-08-17T04:33:53.240Z,99.99
2022-08-17T04:34:52.210Z,99.99
2022-08-17T04:35:52.199Z,99.99
2022-08-17T04:36:52.191Z,99.99
2022-08-17T04:37:52.180Z,99.99
2022-08-17T04:38:52.171Z,99.99
2022-08-17T04:39:52.205Z,99.99
2022-08-17T04:40:52.156Z,99.99
2022-08-17T04:41:52.140Z,99.99
2022-08-17T04:42:52.264Z,99.99
2022-08-17T04:43:53.143Z,99.99
2022-08-17T04:44:52.109Z,99.99
2022-08-17T04:45:56.339Z,99.99
2022-08-17T04:46:52.092Z,99.99
2022-08-17T04:47:52.076Z,99.99
2022-08-17T04:48:52.069Z,99.99
2022-08-17T04:49:52.058Z,99.99
2022-08-17T04:50:52.046Z,99.99
2022-08-17T04:51:56.295Z,99.99
2022-08-17T04:52:53.055Z,99.99
2022-08-17T04:53:54.649Z,99.99
2022-08-17T04:54:52.057Z,99.99
2022-08-17T04:55:51.996Z,99.99
2022-08-17T04:56:51.986Z,99.99
2022-08-17T04:57:51.972Z,99.99
2022-08-17T04:58:51.966Z,99.99
2022-08-17T04:59:51.955Z,99.99
2022-08-17T05:00:52.033Z,99.99
2022-08-17T05:01:51.934Z,99.99
2022-08-17T05:02:52.470Z,99.99
2022-08-17T05:03:51.911Z,99.99
2022-08-17T05:04:51.898Z,99.99
2022-08-17T05:05:51.891Z,99.99
2022-08-17T05:06:51.880Z,99.99
2022-08-17T05:07:51.864Z,99.99
2022-08-17T05:08:51.855Z,99.99
2022-08-17T05:09:51.845Z,99.99
2022-08-17T05:10:51.836Z,99.99
2022-08-17T05:11:51.829Z,99.99
2022-08-17T05:12:51.990Z,99.99
2022-08-17T05:13:51.804Z,99.99
2022-08-17T05:14:51.792Z,99.99
2022-08-17T05:15:51.783Z,99.99
2022-08-17T05:16:51.829Z,99.99
2022-08-17T05:17:51.761Z,99.99
2022-08-17T05:18:51.750Z,99.99
2022-08-17T05:19:52.183Z,99.99
2022-08-17T05:20:52.469Z,99.99
2022-08-17T05:21:51.819Z,99.99
2022-08-17T05:22:51.967Z,99.99
2022-08-17T05:23:54.808Z,99.99
2022-08-17T05:24:53.871Z,99.99
2022-08-17T05:25:51.728Z,99.99
2022-08-17T05:26:51.664Z,99.99
2022-08-17T05:27:51.655Z,99.99
2022-08-17T05:28:51.649Z,99.99
2022-08-17T05:29:51.638Z,99.99
2022-08-17T05:30:51.627Z,99.99
2022-08-17T05:31:51.616Z,99.99
2022-08-17T05:32:51.906Z,99.99
2022-08-17T05:33:51.595Z,99.99
2022-08-17T05:34:51.583Z,99.99
2022-08-17T05:35:51.575Z,99.99
2022-08-17T05:36:51.562Z,99.99
2022-08-17T05:37:51.554Z,99.99
2022-08-17T05:38:51.544Z,99.99
2022-08-17T05:39:51.624Z,99.99
2022-08-17T05:40:51.519Z,99.99
2022-08-17T05:41:51.511Z,99.99
2022-08-17T05:42:51.773Z,99.99
2022-08-17T05:43:56.104Z,99.99
2022-08-17T05:44:51.479Z,99.99
2022-08-17T05:45:56.094Z,99.99
2022-08-17T05:46:51.469Z,99.99
2022-08-17T05:47:51.451Z,99.99
2022-08-17T05:48:51.436Z,99.99
2022-08-17T05:49:51.426Z,99.99
2022-08-17T05:50:51.419Z,99.99
2022-08-17T05:51:51.411Z,99.99
2022-08-17T05:52:51.598Z,99.99
2022-08-17T05:53:51.385Z,99.99
2022-08-17T05:54:51.381Z,99.99
2022-08-17T05:55:51.368Z,99.99
2022-08-17T05:56:51.358Z,99.99
2022-08-17T05:57:54.203Z,99.99
2022-08-17T05:58:51.334Z,99.99
2022-08-17T05:59:51.323Z,99.99
2022-08-17T06:00:51.430Z,99.99
2022-08-17T06:01:51.303Z,99.99
2022-08-17T06:02:51.680Z,99.99
2022-08-17T06:03:51.282Z,99.99
2022-08-17T06:04:51.273Z,99.99
2022-08-17T06:05:51.260Z,99.99
2022-08-17T06:06:51.252Z,99.99
2022-08-17T06:07:51.244Z,99.99
2022-08-17T06:08:51.759Z,99.99
2022-08-17T06:09:51.216Z,99.99
2022-08-17T06:10:51.209Z,99.99
2022-08-17T06:11:53.357Z,99.99
2022-08-17T06:12:51.441Z,99.99
2022-08-17T06:13:51.179Z,99.99
2022-08-17T06:14:51.164Z,99.99
2022-08-17T06:15:51.158Z,99.99
2022-08-17T06:16:51.145Z,99.99
2022-08-17T06:17:51.134Z,99.99
2022-08-17T06:18:51.121Z,99.99
2022-08-17T06:19:51.114Z,99.61
2022-08-17T06:20:51.107Z,98.65
2022-08-17T06:21:51.093Z,98.65
2022-08-17T06:22:51.383Z,98.90
2022-08-17T06:23:51.078Z,98.85
2022-08-17T06:24:51.066Z,98.96
2022-08-17T06:25:51.054Z,98.96
2022-08-17T06:26:51.045Z,98.76
2022-08-17T06:27:53.393Z,98.85
2022-08-17T06:28:51.024Z,98.96
2022-08-17T06:29:51.017Z,99.10
2022-08-17T06:31:00.271Z,99.15
2022-08-17T06:31:52.016Z,99.51
2022-08-17T06:32:51.240Z,99.96
2022-08-17T06:33:50.974Z,99.51
2022-08-17T06:34:50.964Z,99.51
2022-08-17T06:35:50.953Z,99.35
2022-08-17T06:36:50.943Z,99.26
2022-08-17T06:37:50.932Z,99.11
2022-08-17T06:38:50.922Z,99.11
2022-08-17T06:39:50.975Z,99.06
2022-08-17T06:40:50.908Z,98.91
2022-08-17T06:41:50.894Z,98.91
2022-08-17T06:43:06.149Z,99.06
2022-08-17T06:43:50.872Z,99.51
2022-08-17T06:44:51.597Z,98.80
2022-08-17T06:45:50.849Z,98.86
2022-08-17T06:46:50.841Z,98.41
2022-08-17T06:47:50.839Z,98.30
2022-08-17T06:48:50.824Z,97.55
2022-08-17T06:49:55.290Z,96.75
2022-08-17T06:50:50.805Z,96.35
2022-08-17T06:51:50.798Z,95.65
2022-08-17T06:52:50.780Z,95.15
2022-08-17T06:53:50.766Z,94.64
2022-08-17T06:54:50.814Z,95.05
2022-08-17T06:55:50.749Z,95.55
2022-08-17T06:56:53.071Z,96.05
2022-08-17T06:57:50.727Z,97.21
2022-08-17T06:58:50.715Z,97.01
2022-08-17T06:59:55.204Z,97.21
2022-08-17T07:00:54.157Z,96.45
2022-08-17T07:01:51.703Z,96.96
2022-08-17T07:03:02.335Z,96.05
2022-08-17T07:03:50.661Z,96.75
2022-08-17T07:04:50.650Z,96.55
2022-08-17T07:05:50.640Z,95.75
2022-08-17T07:06:50.633Z,95.25
2022-08-17T07:07:50.621Z,95.65
2022-08-17T07:08:50.610Z,95.35
2022-08-17T07:09:50.596Z,94.14
2022-08-17T07:10:50.587Z,93.90
2022-08-17T07:11:50.575Z,94.50
2022-08-17T07:12:50.770Z,94.20
2022-08-17T07:13:51.727Z,94.50
2022-08-17T07:14:50.544Z,93.40
2022-08-17T07:15:53.966Z,93.20
2022-08-17T07:16:51.544Z,93.25
2022-08-17T07:17:50.514Z,93.55
2022-08-17T07:18:50.502Z,92.81
2022-08-17T07:19:50.494Z,91.65
2022-08-17T07:20:50.481Z,90.60
2022-08-17T07:21:50.467Z,89.90
2022-08-17T07:22:57.769Z,90.10
2022-08-17T07:23:50.449Z,89.95
2022-08-17T07:24:50.439Z,88.36
2022-08-17T07:25:50.429Z,86.85
2022-08-17T07:26:50.428Z,88.01
2022-08-17T07:27:50.564Z,86.75
2022-08-17T07:28:50.400Z,87.05
2022-08-17T07:29:50.391Z,87.25
2022-08-17T07:30:50.376Z,88.15
2022-08-17T07:31:50.368Z,88.56
2022-08-17T07:32:50.359Z,89.25
2022-08-17T07:33:50.345Z,89.36
2022-08-17T07:34:50.337Z,89.45
2022-08-17T07:35:50.328Z,89.56
2022-08-17T07:36:50.319Z,89.47
2022-08-17T07:37:50.518Z,88.17
2022-08-17T07:38:50.296Z,88.07
2022-08-17T07:40:14.856Z,86.97
2022-08-17T07:40:51.308Z,87.77
2022-08-17T07:41:53.346Z,88.65
2022-08-17T07:42:51.279Z,89.70
2022-08-17T07:43:50.248Z,90.80
2022-08-17T07:44:50.234Z,90.66
2022-08-17T07:45:50.226Z,90.31
2022-08-17T07:46:50.213Z,89.72
2022-08-17T07:47:50.500Z,87.91
2022-08-17T07:48:50.196Z,87.27
2022-08-17T07:49:50.185Z,87.17
2022-08-17T07:50:50.678Z,86.73
2022-08-17T07:51:50.161Z,85.33
2022-08-17T07:52:51.687Z,85.93
2022-08-17T07:53:50.143Z,85.72
2022-08-17T07:54:50.134Z,87.03
2022-08-17T07:55:50.124Z,87.29
2022-08-17T07:56:50.110Z,84.19
2022-08-17T07:57:50.366Z,84.53
2022-08-17T07:58:50.092Z,85.13
2022-08-17T07:59:50.089Z,87.03
2022-08-17T08:00:50.083Z,85.57
2022-08-17T08:01:51.751Z,86.13
2022-08-17T08:02:51.069Z,86.87
2022-08-17T08:03:52.622Z,86.87
2022-08-17T08:05:00.673Z,87.91
2022-08-17T08:05:51.178Z,88.97
2022-08-17T08:06:50.007Z,86.97
2022-08-17T08:07:50.158Z,85.97
2022-08-17T08:08:49.988Z,85.13
2022-08-17T08:09:49.974Z,85.52
2022-08-17T08:10:49.969Z,84.42
2022-08-17T08:11:49.961Z,84.03
2022-08-17T08:12:52.784Z,84.93
2022-08-17T08:13:49.937Z,84.13
2022-08-17T08:14:49.925Z,82.89
2022-08-17T08:15:54.123Z,83.19
2022-08-17T08:16:49.904Z,83.39
2022-08-17T08:17:50.186Z,83.15
2022-08-17T08:18:55.361Z,82.75
2022-08-17T08:19:50.896Z,82.45
2022-08-17T08:20:53.330Z,82.45
2022-08-17T08:21:49.852Z,82.81
2022-08-17T08:22:49.847Z,82.84
2022-08-17T08:23:49.835Z,82.01
2022-08-17T08:24:49.822Z,79.71
2022-08-17T08:25:53.479Z,79.47
2022-08-17T08:26:49.805Z,80.67
2022-08-17T08:27:49.980Z,81.47
2022-08-17T08:28:49.783Z,81.81
2022-08-17T08:29:49.775Z,82.71
2022-08-17T08:30:49.764Z,82.91
2022-08-17T08:31:49.750Z,82.55
2022-08-17T08:32:50.335Z,83.69
2022-08-17T08:33:49.732Z,83.78
2022-08-17T08:35:02.268Z,84.49
2022-08-17T08:35:49.711Z,84.69
2022-08-17T08:36:57.122Z,84.69
2022-08-17T08:37:50.784Z,86.23
2022-08-17T08:38:49.679Z,87.48
2022-08-17T08:39:49.717Z,85.69
2022-08-17T08:40:49.663Z,84.83
2022-08-17T08:41:49.651Z,84.49
2022-08-17T08:42:49.637Z,84.89
2022-08-17T08:43:53.070Z,84.58
2022-08-17T08:44:59.702Z,84.44
2022-08-17T08:45:50.633Z,83.45
2022-08-17T08:46:49.599Z,83.25
2022-08-17T08:47:49.949Z,83.55
2022-08-17T08:48:56.550Z,83.17
2022-08-17T08:50:05.602Z,82.17
2022-08-17T08:50:50.578Z,80.59
2022-08-17T08:51:49.552Z,81.15
2022-08-17T08:52:49.543Z,79.72
2022-08-17T08:53:49.528Z,79.02
2022-08-17T08:54:49.519Z,77.92
2022-08-17T08:55:49.513Z,77.99
2022-08-17T08:57:19.164Z,73.67
2022-08-17T08:57:50.736Z,73.77
2022-08-17T08:58:49.478Z,73.47
2022-08-17T08:59:57.916Z,72.38
2022-08-17T09:00:50.479Z,73.17
2022-08-17T09:01:49.507Z,73.93
2022-08-17T09:02:49.437Z,75.92
2022-08-17T09:03:53.164Z,76.16
2022-08-17T09:05:13.066Z,77.29
2022-08-17T09:05:50.500Z,79.18
2022-08-17T09:06:49.398Z,76.26
2022-08-17T09:07:49.564Z,75.79
2022-08-17T09:08:49.374Z,75.96
2022-08-17T09:09:49.368Z,73.97
2022-08-17T09:10:49.359Z,73.10
2022-08-17T09:12:01.786Z,69.82
2022-08-17T09:12:49.336Z,69.12
2022-08-17T09:13:54.408Z,69.72
2022-08-17T09:14:49.313Z,68.56
2022-08-17T09:15:49.311Z,67.37
2022-08-17T09:16:49.297Z,67.13
2022-08-17T09:17:50.119Z,64.99
2022-08-17T09:19:01.392Z,64.76
2022-08-17T09:19:50.318Z,65.95
2022-08-17T09:20:50.347Z,67.50
2022-08-17T09:21:49.241Z,69.48
2022-08-17T09:22:49.233Z,71.34
2022-08-17T09:23:49.226Z,73.20
2022-08-17T09:24:49.215Z,72.50
2022-08-17T09:25:49.206Z,72.27
2022-08-17T09:26:49.194Z,70.35
2022-08-17T09:27:49.335Z,71.44
2022-08-17T09:28:49.176Z,71.55
2022-08-17T09:29:49.165Z,71.05
2022-08-17T09:30:49.153Z,72.11
2022-08-17T09:31:49.667Z,72.31
2022-08-17T09:32:49.137Z,73.21
2022-08-17T09:33:49.129Z,73.51
2022-08-17T09:34:49.117Z,73.30
2022-08-17T09:35:49.106Z,72.91
2022-08-17T09:36:49.092Z,71.71
2022-08-17T09:37:49.202Z,71.38
2022-08-17T09:38:49.070Z,71.44
2022-08-17T09:39:49.131Z,71.51
2022-08-17T09:40:49.050Z,70.65
2022-08-17T09:41:49.553Z,69.82
2022-08-17T09:42:49.035Z,71.61
2022-08-17T09:43:49.023Z,70.94
2022-08-17T09:44:49.013Z,68.92
2022-08-17T09:45:49.001Z,68.13
2022-08-17T09:46:48.992Z,67.43
2022-08-17T09:47:49.120Z,67.04
2022-08-17T09:48:48.975Z,67.43
2022-08-17T09:49:48.968Z,67.40
2022-08-17T09:51:03.984Z,65.98
2022-08-17T09:51:49.967Z,66.71
2022-08-17T09:52:48.934Z,67.96
2022-08-17T09:53:49.815Z,65.25
2022-08-17T09:54:48.911Z,65.16
2022-08-17T09:55:48.905Z,64.63
2022-08-17T09:57:05.713Z,64.07
2022-08-17T09:57:50.110Z,63.34
2022-08-17T09:58:48.876Z,64.33
2022-08-17T09:59:48.865Z,63.01
2022-08-17T10:00:48.886Z,62.71
2022-08-17T10:01:48.848Z,64.92
2022-08-17T10:02:48.841Z,63.80
2022-08-17T10:03:48.828Z,62.78
2022-08-17T10:04:48.816Z,61.96
2022-08-17T10:05:48.808Z,59.93
2022-08-17T10:06:48.797Z,63.61
2022-08-17T10:07:48.788Z,61.07
2022-08-17T10:08:48.780Z,63.38
2022-08-17T10:09:48.772Z,62.29
2022-08-17T10:10:56.315Z,63.14
2022-08-17T10:11:50.427Z,65.52
2022-08-17T10:12:48.746Z,63.54
2022-08-17T10:13:53.063Z,64.23
2022-08-17T10:14:53.538Z,64.89
2022-08-17T10:15:48.712Z,63.07
2022-08-17T10:16:48.700Z,63.87
2022-08-17T10:17:49.011Z,65.09
2022-08-17T10:18:48.688Z,62.26
2022-08-17T10:19:48.672Z,60.15
2022-08-17T10:20:48.665Z,59.13
2022-08-17T10:21:48.656Z,59.72
2022-08-17T10:22:53.093Z,59.80
2022-08-17T10:23:49.656Z,60.19
2022-08-17T10:25:22.994Z,60.46
2022-08-17T10:25:55.212Z,57.96
2022-08-17T10:26:56.071Z,56.23
2022-08-17T10:27:49.788Z,56.40
2022-08-17T10:28:48.587Z,56.59
2022-08-17T10:29:49.764Z,58.86
2022-08-17T10:30:48.570Z,54.18
2022-08-17T10:31:48.561Z,55.33
2022-08-17T10:32:48.550Z,53.75
2022-08-17T10:33:48.543Z,54.82
2022-08-17T10:34:48.533Z,56.42
2022-08-17T10:35:48.525Z,56.55
2022-08-17T10:36:48.517Z,54.85
2022-08-17T10:37:48.505Z,54.20
2022-08-17T10:38:48.493Z,53.83
2022-08-17T10:39:51.912Z,54.38
2022-08-17T10:40:48.473Z,55.88
2022-08-17T10:41:48.465Z,55.39
2022-08-17T10:42:48.457Z,55.12
2022-08-17T10:43:55.757Z,57.85
2022-08-17T10:44:49.459Z,53.49
2022-08-17T10:45:48.430Z,52.23
2022-08-17T10:46:49.439Z,50.85
2022-08-17T10:47:55.612Z,49.48
2022-08-17T10:48:49.424Z,49.72
2022-08-17T10:49:48.394Z,51.12
2022-08-17T10:50:48.389Z,53.46
2022-08-17T10:51:48.379Z,53.21
2022-08-17T10:52:48.368Z,54.77
2022-08-17T10:53:48.357Z,56.76
2022-08-17T10:54:48.355Z,55.09
2022-08-17T10:55:48.341Z,55.19
2022-08-17T10:56:48.334Z,54.20
2022-08-17T10:57:48.322Z,55.02
2022-08-17T10:58:48.313Z,53.98
2022-08-17T10:59:48.306Z,52.57
2022-08-17T11:00:48.339Z,50.70
2022-08-17T11:01:48.287Z,52.08
2022-08-17T11:02:48.277Z,51.93
2022-08-17T11:03:48.267Z,52.40
2022-08-17T11:04:48.259Z,50.26
2022-08-17T11:05:48.250Z,49.38
2022-08-17T11:06:48.241Z,51.34
2022-08-17T11:07:48.233Z,52.50
2022-08-17T11:08:48.226Z,52.67
2022-08-17T11:09:48.220Z,47.66
2022-08-17T11:10:51.971Z,48.15
2022-08-17T11:11:48.199Z,47.83
2022-08-17T11:12:48.190Z,48.69
2022-08-17T11:13:48.178Z,49.06
2022-08-17T11:14:48.179Z,47.03
2022-08-17T11:15:48.161Z,48.44
2022-08-17T11:16:48.155Z,44.75
2022-08-17T11:17:48.145Z,43.51
2022-08-17T11:18:48.137Z,42.02
2022-08-17T11:19:48.125Z,42.30
2022-08-17T11:20:48.120Z,43.06
2022-08-17T11:21:48.108Z,41.87
2022-08-17T11:22:48.096Z,41.57
2022-08-17T11:23:48.090Z,41.77
2022-08-17T11:24:48.083Z,41.46
2022-08-17T11:25:48.072Z,40.46
2022-08-17T11:26:48.067Z,40.15
2022-08-17T11:27:48.054Z,38.39
2022-08-17T11:28:48.049Z,38.67
2022-08-17T11:29:52.531Z,39.95
2022-08-17T11:30:48.712Z,40.52
2022-08-17T11:31:48.022Z,41.12
2022-08-17T11:32:51.998Z,40.87
2022-08-17T11:33:49.023Z,43.13
2022-08-17T11:34:47.993Z,44.08
2022-08-17T11:35:47.987Z,45.97
2022-08-17T11:36:47.981Z,47.34
2022-08-17T11:37:47.971Z,49.87
2022-08-17T11:38:47.961Z,49.35
2022-08-17T11:39:48.033Z,51.00
2022-08-17T11:40:47.943Z,50.70
2022-08-17T11:41:47.933Z,50.04
2022-08-17T11:42:47.922Z,49.25
2022-08-17T11:43:47.915Z,50.61
2022-08-17T11:44:47.907Z,50.97
2022-08-17T11:45:47.896Z,47.97
2022-08-17T11:46:51.844Z,47.14
2022-08-17T11:48:08.873Z,47.79
2022-08-17T11:48:48.891Z,43.52
2022-08-17T11:49:47.861Z,42.99
2022-08-17T11:50:47.953Z,42.75
2022-08-17T11:51:47.848Z,41.36
2022-08-17T11:52:47.831Z,42.73
2022-08-17T11:53:47.823Z,40.77
2022-08-17T11:54:47.815Z,42.44
2022-08-17T11:55:47.808Z,41.16
2022-08-17T11:56:47.799Z,41.95
2022-08-17T11:57:47.789Z,43.71
2022-08-17T11:58:47.782Z,43.00
2022-08-17T11:59:47.770Z,41.03
2022-08-17T12:00:47.762Z,41.93
2022-08-17T12:01:47.752Z,41.95
2022-08-17T12:02:48.746Z,42.83
2022-08-17T12:03:53.985Z,43.61
2022-08-17T12:04:48.849Z,43.71
2022-08-17T12:05:47.726Z,45.94
2022-08-17T12:06:47.707Z,47.19
2022-08-17T12:07:47.702Z,49.25
2022-08-17T12:08:47.689Z,48.01
2022-08-17T12:09:47.679Z,44.79
2022-08-17T12:10:47.671Z,42.57
2022-08-17T12:12:11.277Z,42.26
2022-08-17T12:12:48.678Z,40.97
2022-08-17T12:13:47.645Z,40.33
2022-08-17T12:15:12.402Z,42.06
2022-08-17T12:15:48.658Z,40.75
2022-08-17T12:16:47.621Z,39.80
2022-08-17T12:17:47.611Z,42.79
2022-08-17T12:21:35.471Z,46.31
2022-08-17T12:21:36.883Z,44.95
2022-08-17T12:22:36.871Z,44.11
2022-08-17T12:24:54.364Z,43.57
2022-08-17T12:24:55.780Z,43.75
2022-08-17T12:25:55.768Z,44.95
2022-08-17T12:26:55.758Z,45.27
2022-08-17T12:28:06.046Z,42.54
2022-08-17T12:28:56.763Z,46.09
2022-08-17T12:29:55.734Z,44.48
2022-08-17T12:30:55.728Z,44.12
2022-08-17T12:31:55.718Z,42.54
2022-08-17T12:32:55.708Z,40.95
2022-08-17T12:33:55.702Z,41.76
2022-08-17T12:34:55.691Z,43.15
2022-08-17T12:35:59.310Z,46.82
2022-08-17T12:36:55.674Z,48.19
2022-08-17T12:37:55.663Z,48.81
2022-08-17T12:38:55.656Z,48.88
2022-08-17T12:39:55.721Z,47.78
2022-08-17T12:40:55.638Z,47.19
2022-08-17T12:42:01.404Z,48.81
2022-08-17T12:42:56.641Z,49.13
2022-08-17T12:43:55.610Z,48.98
2022-08-17T12:44:55.602Z,47.26
2022-08-17T12:45:55.593Z,47.54
2022-08-17T12:46:55.582Z,45.96
2022-08-17T12:47:55.572Z,46.26
2022-08-17T12:48:59.676Z,46.26
2022-08-17T12:49:55.556Z,46.24
2022-08-17T12:50:55.547Z,44.86
2022-08-17T12:51:55.542Z,44.47
2022-08-17T12:52:59.672Z,44.78
2022-08-17T12:53:55.538Z,47.11
2022-08-17T12:54:55.513Z,47.92
2022-08-17T12:55:55.501Z,48.93
2022-08-17T12:56:55.493Z,49.62
2022-08-17T12:57:55.480Z,50.09
2022-08-17T12:58:55.475Z,51.69
2022-08-17T12:59:55.462Z,51.86
2022-08-17T13:00:55.453Z,51.00
2022-08-17T13:01:55.530Z,52.13
2022-08-17T13:02:55.432Z,53.71
2022-08-17T13:03:55.425Z,52.90
2022-08-17T13:04:55.415Z,51.72
2022-08-17T13:05:55.407Z,53.35
2022-08-17T13:06:59.807Z,54.85
2022-08-17T13:07:55.387Z,55.02
2022-08-17T13:08:55.378Z,52.50
2022-08-17T13:09:55.372Z,52.67
2022-08-17T13:10:55.359Z,52.35
2022-08-17T13:11:55.351Z,52.87
2022-08-17T13:12:55.341Z,51.59
2022-08-17T13:13:55.329Z,52.48
2022-08-17T13:14:55.320Z,52.01
2022-08-17T13:15:55.310Z,52.33
2022-08-17T13:16:55.298Z,54.48
2022-08-17T13:17:55.294Z,55.82
2022-08-17T13:18:55.283Z,55.50
2022-08-17T13:19:55.269Z,54.58
2022-08-17T13:20:55.263Z,55.73
2022-08-17T13:21:55.255Z,56.32
2022-08-17T13:22:55.242Z,55.45
2022-08-17T13:23:55.233Z,54.13
2022-08-17T13:24:55.226Z,53.19
2022-08-17T13:25:55.224Z,51.49
2022-08-17T13:26:55.201Z,50.46
2022-08-17T13:27:55.199Z,49.96
2022-08-17T13:28:55.189Z,50.36
2022-08-17T13:29:55.179Z,50.04
2022-08-17T13:30:55.165Z,49.94
2022-08-17T13:31:59.762Z,50.41
2022-08-17T13:32:55.932Z,48.41
2022-08-17T13:33:55.136Z,47.92
2022-08-17T13:35:13.152Z,48.02
2022-08-17T13:35:55.123Z,48.24
2022-08-17T13:36:55.109Z,48.93
2022-08-17T13:37:55.101Z,48.44
2022-08-17T13:38:55.090Z,49.42
2022-08-17T13:39:55.191Z,49.23
2022-08-17T13:40:55.071Z,49.27
2022-08-17T13:41:55.063Z,50.28
2022-08-17T13:42:55.055Z,50.51
2022-08-17T13:43:55.082Z,50.48
2022-08-17T13:44:55.031Z,52.11
2022-08-17T13:45:55.018Z,50.70
2022-08-17T13:46:57.073Z,50.38
2022-08-17T13:47:55.001Z,50.16
2022-08-17T13:48:54.995Z,50.18
2022-08-17T13:49:54.982Z,50.65
2022-08-17T13:50:54.971Z,50.95
2022-08-17T13:51:54.964Z,49.40
2022-08-17T13:52:54.955Z,49.57
2022-08-17T13:53:54.943Z,50.09
2022-08-17T13:54:55.612Z,50.09